Time;durP1;ratioP1;P1;durP2;ratioP2;P2;SDS_P1;SDS_P2;PMS_P1;PMS_P2;Temp;Humidity;BMP_temperature;BMP_pressure;BME280_temperature;BME280_humidity;BME280_pressure;Samples;Min_cycle;Max_cycle;Signal;HPM_P1;HPM_P2
2022/01/28 00:00:04;;;;;;;0.13;0.13;;;;;;;;;;5023121;28;20369;-69
2022/01/28 00:02:59;;;;;;;0.10;0.10;;;;;;;;;;5028013;28;20274;-70
2022/01/28 00:05:44;;;;;;;0.17;0.17;;;;;;;;;;5015560;28;20248;-69
2022/01/28 00:08:29;;;;;;;0.13;0.13;;;;;;;;;;5033176;28;20218;-69
2022/01/28 00:11:14;;;;;;;0.10;0.10;;;;;;;;;;5014199;28;20330;-69
2022/01/28 00:14:11;;;;;;;0.10;0.10;;;;;;;;;;5029682;28;20219;-68
2022/01/28 00:43:49;;;;;;;0.70;0.70;;;;;;;;;;5027994;28;20277;-69
2022/01/28 00:46:16;;;;;;;0.10;0.10;;;;;;;;;;5020886;28;20282;-72
2022/01/28 00:48:45;;;;;;;0.10;0.10;;;;;;;;;;5021547;28;20238;-70
2022/01/28 00:51:14;;;;;;;0.20;0.20;;;;;;;;;;5020474;28;20254;-69
2022/01/28 00:53:40;;;;;;;0.13;0.13;;;;;;;;;;5021335;28;20219;-69
2022/01/28 00:56:07;;;;;;;0.10;0.10;;;;;;;;;;5022644;28;20253;-70
2022/01/28 00:58:35;;;;;;;0.10;0.10;;;;;;;;;;5025167;28;20212;-70
2022/01/28 01:01:01;;;;;;;0.10;0.10;;;;;;;;;;5022941;28;20293;-70
2022/01/28 01:03:27;;;;;;;0.10;0.10;;;;;;;;;;5034368;28;20213;-70
2022/01/28 01:05:54;;;;;;;0.20;0.20;;;;;;;;;;5017466;28;20316;-70
2022/01/28 01:08:20;;;;;;;0.10;0.10;;;;;;;;;;5024863;28;20239;-69
2022/01/28 01:10:47;;;;;;;0.10;0.10;;;;;;;;;;5017371;28;20252;-70
2022/01/28 01:13:13;;;;;;;0.20;0.20;;;;;;;;;;5035753;28;20517;-69
2022/01/28 01:15:44;;;;;;;0.10;0.10;;;;;;;;;;5019903;28;20462;-69
2022/01/28 01:18:17;;;;;;;0.20;0.20;;;;;;;;;;5024834;28;20356;-69
2022/01/28 01:20:59;;;;;;;0.10;0.10;;;;;;;;;;5020645;28;20306;-70
2022/01/28 01:23:29;;;;;;;0.10;0.10;;;;;;;;;;5024493;28;20271;-70
2022/01/28 01:26:04;;;;;;;0.20;0.20;;;;;;;;;;5021935;28;20310;-70
2022/01/28 01:28:33;;;;;;;0.20;0.20;;;;;;;;;;5033642;28;20238;-70
2022/01/28 01:31:03;;;;;;;0.20;0.20;;;;;;;;;;5017189;28;20270;-70
2022/01/28 01:33:31;;;;;;;14.13;1.37;;;;;;;;;;5024605;28;20240;-70
2022/01/28 01:35:58;;;;;;;0.10;0.10;;;;;;;;;;5017302;28;20259;-70
2022/01/28 01:38:27;;;;;;;0.13;0.13;;;;;;;;;;5024070;28;20204;-69
2022/01/28 01:40:59;;;;;;;0.10;0.10;;;;;;;;;;5017011;28;20326;-68
2022/01/28 01:43:40;;;;;;;0.10;0.10;;;;;;;;;;5033890;28;20518;-69
2022/01/28 01:46:18;;;;;;;0.20;0.20;;;;;;;;;;5022694;28;20242;-69
2022/01/28 02:01:26;;;;;;;0.20;0.20;;;;;;;;;;5024879;28;20274;-69
2022/01/28 02:03:53;;;;;;;0.20;0.20;;;;;;;;;;5023826;28;20211;-70
2022/01/28 02:06:20;;;;;;;0.10;0.10;;;;;;;;;;5023239;28;20267;-69
2022/01/28 02:08:46;;;;;;;0.10;0.10;;;;;;;;;;5023709;28;20248;-69
2022/01/28 02:11:12;;;;;;;0.10;0.10;;;;;;;;;;5016384;28;20327;-70
2022/01/28 02:13:40;;;;;;;0.10;0.10;;;;;;;;;;5031487;28;20282;-69
2022/01/28 02:16:07;;;;;;;0.10;0.10;;;;;;;;;;5022379;28;20251;-68
2022/01/28 02:18:35;;;;;;;0.10;0.10;;;;;;;;;;5023580;28;20210;-68
2022/01/28 02:21:06;;;;;;;0.63;0.63;;;;;;;;;;5016002;28;20537;-70
2022/01/28 02:23:33;;;;;;;0.10;0.10;;;;;;;;;;5031795;28;20251;-70
2022/01/28 02:26:00;;;;;;;0.10;0.10;;;;;;;;;;5016154;28;20547;-70
2022/01/28 02:28:29;;;;;;;0.20;0.20;;;;;;;;;;5023446;28;20212;-70
2022/01/28 02:30:56;;;;;;;0.17;0.17;;;;;;;;;;5015989;28;20260;-70
2022/01/28 02:33:25;;;;;;;0.10;0.10;;;;;;;;;;5023333;28;20230;-70
2022/01/28 02:35:51;;;;;;;0.27;0.27;;;;;;;;;;5020303;28;20505;-69
2022/01/28 02:38:21;;;;;;;0.10;0.10;;;;;;;;;;5023227;28;20206;-70
2022/01/28 02:40:52;;;;;;;0.10;0.10;;;;;;;;;;5015737;28;20266;-69
2022/01/28 02:43:29;;;;;;;0.10;0.10;;;;;;;;;;5033511;28;20199;-69
2022/01/28 02:46:03;;;;;;;0.10;0.10;;;;;;;;;;5015781;28;20551;-69
2022/01/28 02:48:30;;;;;;;0.10;0.10;;;;;;;;;;5023035;28;20259;-70
2022/01/28 02:51:03;;;;;;;0.20;0.20;;;;;;;;;;5015725;28;20259;-70
2022/01/28 02:53:39;;;;;;;0.10;0.10;;;;;;;;;;5023035;28;20222;-70
2022/01/28 02:56:13;;;;;;;0.10;0.10;;;;;;;;;;5015694;28;20251;-69
2022/01/28 02:58:40;;;;;;;2.97;2.87;;;;;;;;;;5030588;28;20511;-69
2022/01/28 03:01:06;;;;;;;0.10;0.10;;;;;;;;;;5015321;28;20311;-69
2022/01/28 03:03:33;;;;;;;0.13;0.13;;;;;;;;;;5031406;28;20218;-69
2022/01/28 03:05:59;;;;;;;0.10;0.10;;;;;;;;;;5015493;28;20483;-69
2022/01/28 03:08:28;;;;;;;0.10;0.10;;;;;;;;;;5032027;28;20228;-69
2022/01/28 03:11:22;;;;;;;0.10;0.10;;;;;;;;;;5015231;28;20589;-70
2022/01/28 03:21:26;;;;;;;0.10;0.10;;;;;;;;;;5022785;28;20268;-69
2022/01/28 03:23:53;;;;;;;0.10;0.10;;;;;;;;;;5022333;28;20247;-69
2022/01/28 03:26:20;;;;;;;0.10;0.10;;;;;;;;;;5014877;28;20250;-69
2022/01/28 03:28:47;;;;;;;0.10;0.10;;;;;;;;;;5022114;28;20211;-69
2022/01/28 03:31:13;;;;;;;0.10;0.10;;;;;;;;;;5021792;28;20619;-70
2022/01/28 03:33:42;;;;;;;0.10;0.10;;;;;;;;;;5022403;28;20212;-69
2022/01/28 03:36:12;;;;;;;0.10;0.10;;;;;;;;;;5014779;28;20250;-69
2022/01/28 03:38:39;;;;;;;1.03;1.03;;;;;;;;;;5029883;28;20454;-70
2022/01/28 03:41:06;;;;;;;1.07;1.03;;;;;;;;;;5020507;28;20301;-69
2022/01/28 03:43:34;;;;;;;0.10;0.10;;;;;;;;;;5021871;28;20279;-70
2022/01/28 03:46:00;;;;;;;0.13;0.13;;;;;;;;;;5019697;28;20490;-70
2022/01/28 03:48:26;;;;;;;0.10;0.10;;;;;;;;;;5022134;28;20516;-70
2022/01/28 03:50:53;;;;;;;0.10;0.10;;;;;;;;;;5014619;28;20246;-70
2022/01/28 03:53:19;;;;;;;0.10;0.10;;;;;;;;;;5021897;28;20210;-69
2022/01/28 03:55:46;;;;;;;0.10;0.10;;;;;;;;;;5018061;28;20243;-70
2022/01/28 03:58:13;;;;;;;1.07;1.07;;;;;;;;;;5033067;28;20206;-69
2022/01/28 04:00:40;;;;;;;0.20;0.20;;;;;;;;;;5014430;28;20255;-68
2022/01/28 04:03:11;;;;;;;0.10;0.10;;;;;;;;;;5033771;28;20251;-68
2022/01/28 04:20:59;;;;;;;0.10;0.10;;;;;;;;;;5019514;28;20263;-70
2022/01/28 04:23:26;;;;;;;0.10;0.10;;;;;;;;;;5021545;28;20271;-70
2022/01/28 04:25:52;;;;;;;0.20;0.20;;;;;;;;;;5014197;28;20453;-70
2022/01/28 04:28:19;;;;;;;0.10;0.10;;;;;;;;;;5021489;28;20542;-69
2022/01/28 04:30:47;;;;;;;0.10;0.10;;;;;;;;;;5018642;28;20473;-70
2022/01/28 04:33:15;;;;;;;0.10;0.10;;;;;;;;;;5028062;28;20260;-70
2022/01/28 04:35:41;;;;;;;0.17;0.17;;;;;;;;;;5020662;28;20616;-69
2022/01/28 04:38:20;;;;;;;0.17;0.17;;;;;;;;;;5039730;28;20210;-69
2022/01/28 04:40:56;;;;;;;0.10;0.10;;;;;;;;;;5020424;28;20251;-69
2022/01/28 04:43:28;;;;;;;0.10;0.10;;;;;;;;;;5028153;28;20208;-69
2022/01/28 04:46:04;;;;;;;0.10;0.10;;;;;;;;;;5025027;28;20259;-70
2022/01/28 04:48:37;;;;;;;0.30;0.30;;;;;;;;;;5027910;28;20243;-69
2022/01/28 04:51:15;;;;;;;0.10;0.10;;;;;;;;;;5026213;28;20243;-69
2022/01/28 04:53:53;;;;;;;0.10;0.10;;;;;;;;;;5035653;28;20269;-69
2022/01/28 04:56:31;;;;;;;0.10;0.10;;;;;;;;;;5027769;28;20269;-69
2022/01/28 04:59:16;;;;;;;0.20;0.20;;;;;;;;;;5033065;28;20271;-69
2022/01/28 05:02:06;;;;;;;0.10;0.10;;;;;;;;;;5020426;28;20264;-69
2022/01/28 05:07:31;;;;;;;0.10;0.10;;;;;;;;;;5033597;28;20314;-70
2022/01/28 05:33:01;;;;;;;0.20;0.20;;;;;;;;;;5040141;28;20538;-70
2022/01/28 05:35:30;;;;;;;0.20;0.20;;;;;;;;;;5020978;28;20325;-69
2022/01/28 05:37:56;;;;;;;0.10;0.10;;;;;;;;;;5040726;28;20282;-69
2022/01/28 05:40:23;;;;;;;0.20;0.20;;;;;;;;;;5019320;28;20285;-70
2022/01/28 05:42:49;;;;;;;0.10;0.10;;;;;;;;;;5023288;28;20203;-69
2022/01/28 05:45:17;;;;;;;0.10;0.10;;;;;;;;;;5016610;28;20216;-70
2022/01/28 05:47:43;;;;;;;0.10;0.10;;;;;;;;;;5024152;28;20444;-69
2022/01/28 05:50:12;;;;;;;0.10;0.10;;;;;;;;;;5014466;28;20235;-70
2022/01/28 05:52:39;;;;;;;0.10;0.10;;;;;;;;;;5024073;28;20442;-71
2022/01/28 05:55:06;;;;;;;0.10;0.10;;;;;;;;;;5023938;28;20279;-69
2022/01/28 05:57:33;;;;;;;0.10;0.10;;;;;;;;;;5014257;28;20263;-70
2022/01/28 05:59:59;;;;;;;0.10;0.10;;;;;;;;;;5025215;28;20275;-70
2022/01/28 06:02:25;;;;;;;0.10;0.10;;;;;;;;;;5030127;28;20325;-69
2022/01/28 06:04:52;;;;;;;0.20;0.20;;;;;;;;;;5023862;28;20219;-70
2022/01/28 06:07:20;;;;;;;0.10;0.10;;;;;;;;;;5029974;28;20437;-70
2022/01/28 06:09:49;;;;;;;0.10;0.10;;;;;;;;;;5024863;28;20515;-70
2022/01/28 06:12:16;;;;;;;0.10;0.10;;;;;;;;;;5015042;28;20455;-70
2022/01/28 06:14:42;;;;;;;0.10;0.10;;;;;;;;;;5024804;28;20212;-70
2022/01/28 06:17:09;;;;;;;2.27;1.17;;;;;;;;;;5029977;28;20266;-69
2022/01/28 06:19:37;;;;;;;0.10;0.10;;;;;;;;;;5023366;28;20242;-71
2022/01/28 06:22:04;;;;;;;0.10;0.10;;;;;;;;;;5029306;28;20294;-69
2022/01/28 06:24:30;;;;;;;0.10;0.10;;;;;;;;;;5023431;28;20280;-69
2022/01/28 06:26:58;;;;;;;0.10;0.10;;;;;;;;;;5016299;28;20535;-69
2022/01/28 06:29:25;;;;;;;3.10;1.13;;;;;;;;;;5023327;28;20226;-69
2022/01/28 06:31:51;;;;;;;0.10;0.10;;;;;;;;;;5016113;28;20254;-70
2022/01/28 06:34:18;;;;;;;0.10;0.10;;;;;;;;;;5023190;28;20212;-70
2022/01/28 06:36:44;;;;;;;0.10;0.10;;;;;;;;;;5016172;28;20497;-68
2022/01/28 06:39:11;;;;;;;0.20;0.20;;;;;;;;;;5023009;28;20444;-69
2022/01/28 06:41:37;;;;;;;0.20;0.20;;;;;;;;;;5015840;28;20240;-69
2022/01/28 06:44:05;;;;;;;5.83;2.87;;;;;;;;;;5023076;28;20266;-69
2022/01/28 06:46:32;;;;;;;0.10;0.10;;;;;;;;;;5015631;28;20444;-69
2022/01/28 06:48:58;;;;;;;0.20;0.20;;;;;;;;;;5022881;28;20256;-69
2022/01/28 06:51:24;;;;;;;1.53;1.50;;;;;;;;;;5023571;28;20256;-69
2022/01/28 06:53:51;;;;;;;0.10;0.10;;;;;;;;;;5028926;28;20211;-70
2022/01/28 06:56:17;;;;;;;0.13;0.13;;;;;;;;;;5023132;28;20437;-69
2022/01/28 06:58:44;;;;;;;0.10;0.10;;;;;;;;;;5022995;28;20231;-70
2022/01/28 07:01:12;;;;;;;0.10;0.10;;;;;;;;;;5021942;28;20247;-69
2022/01/28 07:03:38;;;;;;;0.10;0.10;;;;;;;;;;5030820;28;20216;-68
2022/01/28 07:06:05;;;;;;;0.10;0.10;;;;;;;;;;5015291;28;20251;-69
2022/01/28 07:08:31;;;;;;;0.10;0.10;;;;;;;;;;5031374;28;20251;-69
2022/01/28 07:10:58;;;;;;;0.10;0.10;;;;;;;;;;5020352;28;20335;-68
2022/01/28 07:13:24;;;;;;;0.10;0.10;;;;;;;;;;5022533;28;20209;-69
2022/01/28 07:15:52;;;;;;;0.13;0.13;;;;;;;;;;5015358;28;20498;-70
2022/01/28 07:18:20;;;;;;;0.10;0.10;;;;;;;;;;5022491;28;20275;-69
2022/01/28 07:20:47;;;;;;;0.10;0.10;;;;;;;;;;5018504;28;20254;-68
2022/01/28 07:23:13;;;;;;;0.13;0.13;;;;;;;;;;5021970;28;20461;-68
2022/01/28 07:25:39;;;;;;;0.20;0.20;;;;;;;;;;5014968;28;20322;-67
2022/01/28 07:28:06;;;;;;;0.13;0.13;;;;;;;;;;5022392;28;20236;-70
2022/01/28 07:30:41;;;;;;;0.13;0.13;;;;;;;;;;5016791;28;20314;-69
2022/01/28 07:33:10;;;;;;;0.10;0.10;;;;;;;;;;5034169;28;20216;-69
2022/01/28 07:35:37;;;;;;;0.10;0.10;;;;;;;;;;5016876;28;20262;-68
2022/01/28 07:38:04;;;;;;;0.10;0.10;;;;;;;;;;5034395;28;20278;-68
2022/01/28 07:40:30;;;;;;;0.10;0.10;;;;;;;;;;5014859;28;20251;-68
2022/01/28 07:42:57;;;;;;;0.20;0.20;;;;;;;;;;5022064;28;20288;-70
2022/01/28 07:45:24;;;;;;;0.13;0.13;;;;;;;;;;5015511;28;20212;-68
2022/01/28 07:47:51;;;;;;;0.17;0.17;;;;;;;;;;5035949;28;20462;-69
2022/01/28 07:50:17;;;;;;;0.10;0.10;;;;;;;;;;5014513;28;20233;-69
2022/01/28 07:52:45;;;;;;;0.20;0.20;;;;;;;;;;5036742;28;20224;-68
2022/01/28 07:55:13;;;;;;;0.20;0.20;;;;;;;;;;5013430;28;20212;-69
2022/01/28 07:57:40;;;;;;;0.10;0.10;;;;;;;;;;5021871;28;20216;-69
2022/01/28 08:00:07;;;;;;;0.20;0.20;;;;;;;;;;5013108;28;20212;-70
2022/01/28 08:02:34;;;;;;;0.10;0.10;;;;;;;;;;5021954;28;20206;-70
2022/01/28 08:05:00;;;;;;;0.10;0.10;;;;;;;;;;5020941;28;20208;-71
2022/01/28 08:07:27;;;;;;;0.10;0.10;;;;;;;;;;5011685;28;20488;-71
2022/01/28 08:09:55;;;;;;;0.20;0.20;;;;;;;;;;5021305;28;20254;-69
2022/01/28 08:12:22;;;;;;;2.93;2.83;;;;;;;;;;5027717;28;20247;-70
2022/01/28 08:14:48;;;;;;;0.10;0.10;;;;;;;;;;5022495;28;20202;-72
2022/01/28 08:17:15;;;;;;;0.10;0.10;;;;;;;;;;5012898;28;20242;-71
2022/01/28 08:19:42;;;;;;;0.13;0.13;;;;;;;;;;5023092;28;20207;-70
2022/01/28 08:22:08;;;;;;;0.17;0.17;;;;;;;;;;5013662;28;20327;-70
2022/01/28 08:24:35;;;;;;;0.10;0.10;;;;;;;;;;5022411;28;20283;-71
2022/01/28 08:27:03;;;;;;;0.13;0.13;;;;;;;;;;5014174;28;20243;-70
2022/01/28 08:29:29;;;;;;;0.10;0.10;;;;;;;;;;5021315;28;20474;-70
2022/01/28 08:31:56;;;;;;;0.10;0.10;;;;;;;;;;5014243;28;20243;-70
2022/01/28 08:34:22;;;;;;;0.20;0.20;;;;;;;;;;5023483;28;20216;-70
2022/01/28 08:36:49;;;;;;;0.10;0.10;;;;;;;;;;5025465;28;20248;-70
2022/01/28 08:39:16;;;;;;;0.20;0.20;;;;;;;;;;5024636;28;20246;-72
2022/01/28 08:41:43;;;;;;;0.17;0.17;;;;;;;;;;5024662;28;20244;-70
2022/01/28 08:44:11;;;;;;;0.10;0.10;;;;;;;;;;5021171;28;20235;-72
2022/01/28 08:46:37;;;;;;;0.10;0.10;;;;;;;;;;5023548;28;20317;-70
2022/01/28 08:49:04;;;;;;;0.10;0.10;;;;;;;;;;5021028;28;20662;-70
2022/01/28 08:51:30;;;;;;;0.10;0.10;;;;;;;;;;5022757;28;20415;-69
2022/01/28 08:53:58;;;;;;;0.13;0.13;;;;;;;;;;5026869;28;20279;-69
2022/01/28 08:56:25;;;;;;;0.13;0.13;;;;;;;;;;5013499;28;20278;-70
2022/01/28 08:58:51;;;;;;;0.20;0.20;;;;;;;;;;5021083;28;20215;-69
2022/01/28 09:01:20;;;;;;;0.57;0.57;;;;;;;;;;5013873;28;20318;-69
2022/01/28 09:03:49;;;;;;;0.10;0.10;;;;;;;;;;5021080;28;20208;-69
2022/01/28 09:06:16;;;;;;;0.10;0.10;;;;;;;;;;5013690;28;20558;-69
2022/01/28 09:09:02;;;;;;;0.10;0.10;;;;;;;;;;5028415;28;20233;-70
2022/01/28 09:11:33;;;;;;;0.10;0.10;;;;;;;;;;5022566;28;20255;-69
2022/01/28 09:14:00;;;;;;;0.10;0.10;;;;;;;;;;5026307;28;20206;-68
2022/01/28 09:16:28;;;;;;;0.10;0.10;;;;;;;;;;5015437;28;20356;-71
2022/01/28 09:18:55;;;;;;;0.10;0.10;;;;;;;;;;5031201;28;20264;-69
2022/01/28 09:21:22;;;;;;;0.10;0.10;;;;;;;;;;5017034;28;20246;-69
2022/01/28 09:23:48;;;;;;;0.10;0.10;;;;;;;;;;5031410;28;20225;-70
2022/01/28 09:26:15;;;;;;;0.13;0.13;;;;;;;;;;5024591;28;20250;-70
2022/01/28 09:28:42;;;;;;;0.17;0.17;;;;;;;;;;5024817;28;20225;-69
2022/01/28 09:31:08;;;;;;;0.10;0.10;;;;;;;;;;5017263;28;20251;-69
2022/01/28 09:33:37;;;;;;;0.30;0.30;;;;;;;;;;5033088;28;20215;-69
2022/01/28 09:36:05;;;;;;;0.10;0.10;;;;;;;;;;5022256;28;20250;-69
2022/01/28 09:38:31;;;;;;;0.10;0.10;;;;;;;;;;5033743;28;20399;-71
2022/01/28 09:41:00;;;;;;;0.10;0.10;;;;;;;;;;5017158;28;20293;-70
2022/01/28 09:43:26;;;;;;;0.10;0.10;;;;;;;;;;5024640;28;20506;-69
2022/01/28 09:45:53;;;;;;;0.53;0.53;;;;;;;;;;5017271;28;20419;-69
2022/01/28 09:48:21;;;;;;;0.10;0.10;;;;;;;;;;5024269;28;20422;-70
2022/01/28 09:50:50;;;;;;;0.10;0.10;;;;;;;;;;5016946;28;20244;-69
2022/01/28 09:53:17;;;;;;;0.33;0.33;;;;;;;;;;5035009;28;20216;-70
2022/01/28 09:55:45;;;;;;;0.10;0.10;;;;;;;;;;5019883;28;20449;-70
2022/01/28 09:58:12;;;;;;;0.10;0.10;;;;;;;;;;5024087;28;20276;-69
2022/01/28 10:00:39;;;;;;;0.10;0.10;;;;;;;;;;5019340;28;20249;-69
2022/01/28 10:03:06;;;;;;;0.10;0.10;;;;;;;;;;5024347;28;20201;-71
2022/01/28 10:05:34;;;;;;;0.10;0.10;;;;;;;;;;5017003;28;20547;-69
2022/01/28 10:08:04;;;;;;;0.10;0.10;;;;;;;;;;5024506;28;20405;-70
2022/01/28 10:10:41;;;;;;;0.20;0.20;;;;;;;;;;5016577;28;20583;-71
2022/01/28 10:13:09;;;;;;;0.20;0.20;;;;;;;;;;5035408;28;20209;-71
2022/01/28 10:15:36;;;;;;;0.10;0.10;;;;;;;;;;5016538;28;20251;-70
2022/01/28 10:18:03;;;;;;;0.10;0.10;;;;;;;;;;5036432;28;20276;-70
2022/01/28 10:20:29;;;;;;;7.03;6.60;;;;;;;;;;5017449;28;20597;-71
2022/01/28 10:22:57;;;;;;;0.10;0.10;;;;;;;;;;5036916;28;20307;-71
2022/01/28 10:25:26;;;;;;;0.10;0.10;;;;;;;;;;5016808;28;20278;-71
2022/01/28 10:27:57;;;;;;;0.10;0.10;;;;;;;;;;5036932;28;20222;-71
2022/01/28 10:30:24;;;;;;;0.97;0.97;;;;;;;;;;5015361;28;20224;-69
2022/01/28 10:33:05;;;;;;;0.10;0.10;;;;;;;;;;5023509;28;20201;-69
2022/01/28 10:35:33;;;;;;;1.00;1.00;;;;;;;;;;5016004;28;20311;-70
2022/01/28 10:38:02;;;;;;;0.10;0.10;;;;;;;;;;5023284;28;20202;-69
2022/01/28 10:40:30;;;;;;;0.10;0.10;;;;;;;;;;5015947;28;20245;-70
2022/01/28 10:42:56;;;;;;;0.10;0.10;;;;;;;;;;5023536;28;20215;-71
2022/01/28 10:45:28;;;;;;;0.10;0.10;;;;;;;;;;5015169;28;20566;-70
2022/01/28 10:47:55;;;;;;;0.10;0.10;;;;;;;;;;5036683;28;20219;-70
2022/01/28 10:50:23;;;;;;;0.10;0.10;;;;;;;;;;5015853;28;20314;-71
2022/01/28 10:53:00;;;;;;;0.53;0.53;;;;;;;;;;5023183;28;20397;-71
2022/01/28 10:55:28;;;;;;;0.10;0.10;;;;;;;;;;5015404;28;20444;-71
2022/01/28 10:58:01;;;;;;;0.10;0.10;;;;;;;;;;5036486;28;20423;-71
2022/01/28 11:00:29;;;;;;;0.10;0.10;;;;;;;;;;5015328;28;20250;-72
2022/01/28 11:02:57;;;;;;;0.10;0.10;;;;;;;;;;5036327;28;20283;-71
2022/01/28 11:05:23;;;;;;;0.20;0.20;;;;;;;;;;5014716;28;20203;-70
2022/01/28 11:07:50;;;;;;;1.23;0.53;;;;;;;;;;5036789;28;20211;-71
2022/01/28 11:10:17;;;;;;;0.10;0.10;;;;;;;;;;5013545;28;20228;-71
2022/01/28 11:12:44;;;;;;;0.37;0.37;;;;;;;;;;5037776;28;20213;-71
2022/01/28 11:15:13;;;;;;;0.10;0.10;;;;;;;;;;5012957;28;20209;-72
2022/01/28 11:17:40;;;;;;;0.10;0.10;;;;;;;;;;5038019;28;20439;-71
2022/01/28 11:20:08;;;;;;;0.10;0.10;;;;;;;;;;5012444;28;20300;-72
2022/01/28 11:22:56;;;;;;;0.10;0.10;;;;;;;;;;5038278;28;20252;-70
2022/01/28 11:25:35;;;;;;;1.70;1.70;;;;;;;;;;5015430;28;20480;-72
2022/01/28 11:28:04;;;;;;;0.10;0.10;;;;;;;;;;5022549;28;20439;-71
2022/01/28 11:30:33;;;;;;;0.10;0.10;;;;;;;;;;5014918;28;20350;-70
2022/01/28 11:33:01;;;;;;;0.10;0.10;;;;;;;;;;5035505;28;20232;-69
2022/01/28 11:35:29;;;;;;;0.10;0.10;;;;;;;;;;5014610;28;20253;-71
2022/01/28 11:38:01;;;;;;;0.10;0.10;;;;;;;;;;5022424;28;20251;-69
2022/01/28 11:40:28;;;;;;;0.10;0.10;;;;;;;;;;5013791;28;20252;-70
2022/01/28 11:43:09;;;;;;;0.20;0.20;;;;;;;;;;5035721;28;20212;-70
2022/01/28 11:45:42;;;;;;;0.10;0.10;;;;;;;;;;5016787;28;20250;-69
2022/01/28 11:48:09;;;;;;;0.10;0.10;;;;;;;;;;5033917;28;20236;-69
2022/01/28 11:50:35;;;;;;;0.10;0.10;;;;;;;;;;5016361;28;20341;-69
2022/01/28 11:53:03;;;;;;;0.10;0.10;;;;;;;;;;5034574;28;20212;-69
2022/01/28 11:55:33;;;;;;;0.30;0.30;;;;;;;;;;5014631;28;20251;-69
2022/01/28 11:58:00;;;;;;;0.10;0.10;;;;;;;;;;5022116;28;20232;-70
2022/01/28 12:00:28;;;;;;;0.10;0.10;;;;;;;;;;5014523;28;20319;-69
2022/01/28 12:02:57;;;;;;;0.10;0.10;;;;;;;;;;5035728;28;20207;-70
2022/01/28 12:05:42;;;;;;;0.10;0.10;;;;;;;;;;5015109;28;20276;-71
2022/01/28 12:08:10;;;;;;;0.10;0.10;;;;;;;;;;5021629;28;20253;-70
2022/01/28 12:10:41;;;;;;;0.10;0.10;;;;;;;;;;5014407;28;20253;-69
2022/01/28 12:13:12;;;;;;;0.10;0.10;;;;;;;;;;5033361;28;20600;-70
2022/01/28 12:15:58;;;;;;;0.10;0.10;;;;;;;;;;5014477;28;20253;-69
2022/01/28 12:18:26;;;;;;;0.10;0.10;;;;;;;;;;5031245;28;20269;-70
2022/01/28 12:20:53;;;;;;;0.10;0.10;;;;;;;;;;5014426;28;20244;-69
2022/01/28 12:23:29;;;;;;;0.10;0.10;;;;;;;;;;5031624;28;20244;-70
2022/01/28 12:25:57;;;;;;;0.10;0.10;;;;;;;;;;5014411;28;20306;-69
2022/01/28 12:28:25;;;;;;;0.77;0.77;;;;;;;;;;5021691;28;20208;-70
2022/01/28 12:31:02;;;;;;;0.10;0.10;;;;;;;;;;5018481;28;20243;-70
2022/01/28 12:33:31;;;;;;;0.10;0.10;;;;;;;;;;5021878;28;20501;-70
2022/01/28 12:36:00;;;;;;;0.20;0.20;;;;;;;;;;5018913;28;20289;-69
2022/01/28 12:38:30;;;;;;;0.20;0.20;;;;;;;;;;5030989;28;20215;-69
2022/01/28 12:41:05;;;;;;;0.10;0.10;;;;;;;;;;5019143;28;20245;-70
2022/01/28 12:43:32;;;;;;;0.10;0.10;;;;;;;;;;5030476;28;20201;-69
2022/01/28 12:46:00;;;;;;;0.20;0.20;;;;;;;;;;5014422;28;20260;-70
2022/01/28 12:48:26;;;;;;;1.50;1.07;;;;;;;;;;5021441;28;20250;-70
2022/01/28 12:50:57;;;;;;;0.23;0.23;;;;;;;;;;5019353;28;20247;-70
2022/01/28 12:53:27;;;;;;;0.10;0.10;;;;;;;;;;5025567;28;20236;-69
2022/01/28 12:55:53;;;;;;;0.10;0.10;;;;;;;;;;5018076;28;20259;-71
2022/01/28 12:58:30;;;;;;;0.10;0.10;;;;;;;;;;5025671;28;20202;-71
2022/01/28 13:01:03;;;;;;;0.10;0.10;;;;;;;;;;5022734;28;20249;-70
2022/01/28 13:03:34;;;;;;;0.10;0.10;;;;;;;;;;5034443;28;20210;-70
2022/01/28 13:06:22;;;;;;;0.20;0.20;;;;;;;;;;5017813;28;20248;-69
2022/01/28 13:08:50;;;;;;;0.10;0.10;;;;;;;;;;5024945;28;20209;-70
2022/01/28 13:11:16;;;;;;;0.10;0.10;;;;;;;;;;5024926;28;20240;-72
2022/01/28 13:13:50;;;;;;;0.10;0.10;;;;;;;;;;5025241;28;20560;-70
2022/01/28 13:16:16;;;;;;;0.10;0.10;;;;;;;;;;5024702;28;20274;-71
2022/01/28 13:18:56;;;;;;;0.10;0.10;;;;;;;;;;5032455;28;20209;-69
2022/01/28 13:21:22;;;;;;;0.10;0.10;;;;;;;;;;5017299;28;20562;-70
2022/01/28 13:24:03;;;;;;;0.10;0.10;;;;;;;;;;5031401;28;20231;-69
2022/01/28 13:26:29;;;;;;;0.10;0.10;;;;;;;;;;5017635;28;20240;-70
2022/01/28 13:29:04;;;;;;;0.10;0.10;;;;;;;;;;5024450;28;20201;-70
2022/01/28 13:31:30;;;;;;;0.10;0.10;;;;;;;;;;5017266;28;20290;-71
2022/01/28 13:33:58;;;;;;;0.10;0.10;;;;;;;;;;5024590;28;20215;-70
2022/01/28 13:36:24;;;;;;;0.10;0.10;;;;;;;;;;5017185;28;20438;-69
2022/01/28 13:38:52;;;;;;;0.10;0.10;;;;;;;;;;5030812;28;20580;-69
2022/01/28 13:41:19;;;;;;;0.10;0.10;;;;;;;;;;5024839;28;20639;-69
2022/01/28 13:43:46;;;;;;;0.10;0.10;;;;;;;;;;5031593;28;20216;-69
2022/01/28 13:46:13;;;;;;;0.10;0.10;;;;;;;;;;5017259;28;20605;-70
2022/01/28 13:48:41;;;;;;;0.13;0.13;;;;;;;;;;5032257;28;20345;-69
2022/01/28 13:51:08;;;;;;;0.10;0.10;;;;;;;;;;5016970;28;20244;-70
2022/01/28 13:56:28;;;;;;;0.10;0.10;;;;;;;;;;5024785;28;20393;-70
2022/01/28 13:58:55;;;;;;;1.47;1.47;;;;;;;;;;5024172;28;20528;-70
2022/01/28 14:01:22;;;;;;;0.20;0.20;;;;;;;;;;5024519;28;20421;-70
2022/01/28 14:03:50;;;;;;;0.10;0.10;;;;;;;;;;5022958;28;20309;-71
2022/01/28 14:06:18;;;;;;;0.10;0.10;;;;;;;;;;5016940;28;20563;-70
2022/01/28 14:08:47;;;;;;;0.10;0.10;;;;;;;;;;5024234;28;20255;-70
2022/01/28 14:11:28;;;;;;;0.10;0.10;;;;;;;;;;5023314;28;20276;-70
2022/01/28 14:14:22;;;;;;;0.10;0.10;;;;;;;;;;5029849;28;20197;-70
2022/01/28 14:16:49;;;;;;;0.10;0.10;;;;;;;;;;5027882;28;20323;-70
2022/01/28 14:19:16;;;;;;;0.10;0.10;;;;;;;;;;5026893;28;20211;-70
2022/01/28 14:21:43;;;;;;;0.10;0.10;;;;;;;;;;5016234;28;20447;-70
2022/01/28 14:24:13;;;;;;;0.13;0.13;;;;;;;;;;5023788;28;20286;-70
2022/01/28 14:26:42;;;;;;;0.10;0.10;;;;;;;;;;5026251;28;20617;-70
2022/01/28 14:29:21;;;;;;;0.10;0.10;;;;;;;;;;5023596;28;20205;-69
2022/01/28 14:31:49;;;;;;;0.10;0.10;;;;;;;;;;5027500;28;20249;-68
2022/01/28 14:34:16;;;;;;;0.10;0.10;;;;;;;;;;5023278;28;20207;-70
2022/01/28 14:36:43;;;;;;;0.10;0.10;;;;;;;;;;5016249;28;20240;-69
2022/01/28 14:39:10;;;;;;;0.10;0.10;;;;;;;;;;5023360;28;20232;-70
2022/01/28 14:41:37;;;;;;;0.10;0.10;;;;;;;;;;5025836;28;20462;-69
2022/01/28 14:44:04;;;;;;;0.10;0.10;;;;;;;;;;5023215;28;20201;-69
2022/01/28 14:46:31;;;;;;;0.10;0.10;;;;;;;;;;5024924;28;20245;-70
2022/01/28 14:49:03;;;;;;;0.30;0.30;;;;;;;;;;5023091;28;20211;-71
2022/01/28 14:51:30;;;;;;;0.10;0.10;;;;;;;;;;5024456;28;20385;-68
2022/01/28 14:53:57;;;;;;;0.10;0.10;;;;;;;;;;5022982;28;20276;-71
2022/01/28 14:56:24;;;;;;;0.10;0.10;;;;;;;;;;5015771;28;20255;-70
2022/01/28 14:58:51;;;;;;;0.10;0.10;;;;;;;;;;5023053;28;20201;-70
2022/01/28 15:01:18;;;;;;;0.10;0.10;;;;;;;;;;5022950;28;20311;-69
2022/01/28 15:03:45;;;;;;;0.10;0.10;;;;;;;;;;5023289;28;20243;-70
2022/01/28 15:06:15;;;;;;;0.10;0.10;;;;;;;;;;5015495;28;20259;-70
2022/01/28 15:08:42;;;;;;;0.10;0.10;;;;;;;;;;5022989;28;20516;-71
2022/01/28 15:11:13;;;;;;;0.10;0.10;;;;;;;;;;5015443;28;20384;-69
2022/01/28 15:13:39;;;;;;;0.10;0.10;;;;;;;;;;5022828;28;20220;-69
2022/01/28 15:16:06;;;;;;;0.10;0.10;;;;;;;;;;5021194;28;20406;-70
2022/01/28 15:18:33;;;;;;;0.17;0.17;;;;;;;;;;5022818;28;20240;-69
2022/01/28 15:20:59;;;;;;;0.20;0.20;;;;;;;;;;5015185;28;20254;-70
2022/01/28 15:23:27;;;;;;;0.10;0.10;;;;;;;;;;5022377;28;20247;-70
2022/01/28 15:25:54;;;;;;;0.10;0.10;;;;;;;;;;5019509;28;20259;-72
2022/01/28 15:28:23;;;;;;;0.10;0.10;;;;;;;;;;5022447;28;20382;-70
2022/01/28 16:11:14;;;;;;;0.10;0.10;;;;;;;;;;5017222;28;20312;-70
2022/01/28 16:13:42;;;;;;;0.10;0.10;;;;;;;;;;5029870;28;20247;-70
2022/01/28 16:23:40;;;;;;;0.10;0.10;;;;;;;;;;5029385;28;20224;-71
2022/01/28 16:26:08;;;;;;;0.10;0.10;;;;;;;;;;5019699;28;20444;-71
2022/01/28 16:28:35;;;;;;;0.10;0.10;;;;;;;;;;5030108;28;20217;-70
2022/01/28 16:31:02;;;;;;;0.10;0.10;;;;;;;;;;5019495;28;20259;-72
2022/01/28 16:33:28;;;;;;;0.20;0.20;;;;;;;;;;5030451;28;20237;-71
2022/01/28 16:35:55;;;;;;;0.13;0.13;;;;;;;;;;5018755;28;20248;-71
2022/01/28 16:38:22;;;;;;;0.20;0.20;;;;;;;;;;5021273;28;20212;-72
2022/01/28 16:43:00;;;;;;;0.10;0.10;;;;;;;;;;5162101;27;20647;-70
2022/01/28 16:45:27;;;;;;;0.13;0.13;;;;;;;;;;5144800;27;20326;-71
2022/01/28 16:47:54;;;;;;;0.10;0.10;;;;;;;;;;5095834;28;20205;-71
2022/01/28 16:50:20;;;;;;;0.13;0.13;;;;;;;;;;5071839;28;20202;-70
2022/01/28 16:52:47;;;;;;;0.10;0.10;;;;;;;;;;5099382;28;20245;-70
2022/01/28 16:55:18;;;;;;;0.10;0.10;;;;;;;;;;5071707;28;20418;-70
2022/01/28 16:57:52;;;;;;;0.20;0.20;;;;;;;;;;5082104;28;20274;-70
2022/01/28 17:00:21;;;;;;;0.20;0.20;;;;;;;;;;5071543;28;20198;-70
2022/01/28 17:02:49;;;;;;;0.10;0.10;;;;;;;;;;5099208;28;20197;-70
2022/01/28 17:05:15;;;;;;;0.13;0.13;;;;;;;;;;5089588;28;20199;-71
2022/01/28 17:07:42;;;;;;;0.10;0.10;;;;;;;;;;5098626;28;20236;-70
2022/01/28 17:10:12;;;;;;;0.10;0.10;;;;;;;;;;5090074;28;20209;-70
2022/01/28 17:12:40;;;;;;;0.17;0.17;;;;;;;;;;5098783;28;20413;-70
2022/01/28 17:15:09;;;;;;;0.20;0.20;;;;;;;;;;5088448;28;20206;-70